Time;durP1;ratioP1;P1;durP2;ratioP2;P2;SDS_P1;SDS_P2;PMS_P1;PMS_P2;Temp;Humidity;BMP_temperature;BMP_pressure;BME280_temperature;BME280_humidity;BME280_pressure;Samples;Min_cycle;Max_cycle;Signal;HPM_P1;HPM_P2
2022/04/19 00:00:51;;;;;;;6.83;4.87;;;7.70;99.90;;;;;;5066416;28;20299;-90
2022/04/19 00:03:18;;;;;;;6.97;5.07;;;7.60;99.90;;;;;;5065048;28;20190;-90
2022/04/19 00:05:46;;;;;;;8.00;4.83;;;7.40;99.90;;;;;;5047842;28;20243;-90
2022/04/19 00:08:14;;;;;;;6.43;4.37;;;7.30;99.90;;;;;;5064600;28;20217;-90
2022/04/19 00:10:40;;;;;;;5.73;4.77;;;7.40;99.90;;;;;;5064969;28;20228;-91
2022/04/19 00:13:07;;;;;;;7.87;4.47;;;7.50;99.90;;;;;;5065100;28;20233;-90
2022/04/19 00:15:34;;;;;;;9.43;4.87;;;7.50;99.90;;;;;;5081540;28;20217;-91
2022/04/19 00:18:02;;;;;;;5.33;3.83;;;7.50;99.90;;;;;;5065658;28;20228;-90
2022/04/19 00:20:29;;;;;;;6.33;4.77;;;7.50;99.90;;;;;;5081728;28;20324;-90
2022/04/19 00:22:55;;;;;;;6.50;5.37;;;7.50;99.90;;;;;;5065727;28;20355;-91
2022/04/19 00:25:21;;;;;;;6.97;5.43;;;7.50;99.90;;;;;;5047782;28;20225;-90
2022/04/19 00:27:47;;;;;;;6.00;4.13;;;7.40;99.90;;;;;;5081693;28;20217;-89
2022/04/19 00:30:13;;;;;;;12.20;5.23;;;7.40;99.90;;;;;;5065296;28;20196;-90
2022/04/19 00:32:40;;;;;;;7.60;5.27;;;7.30;99.90;;;;;;5048118;28;20359;-89
2022/04/19 00:35:08;;;;;;;9.93;4.90;;;7.30;99.90;;;;;;5047821;28;20222;-90
2022/04/19 00:37:36;;;;;;;6.07;4.50;;;7.30;99.90;;;;;;5065903;28;20369;-91
2022/04/19 00:40:03;;;;;;;5.53;4.33;;;7.30;99.90;;;;;;5047263;28;20243;-91
2022/04/19 00:42:30;;;;;;;18.40;6.17;;;7.30;99.90;;;;;;5048303;28;20213;-90
2022/04/19 00:44:57;;;;;;;8.40;4.63;;;7.30;99.90;;;;;;5081899;28;20308;-90
2022/04/19 00:47:23;;;;;;;8.10;5.50;;;7.30;99.90;;;;;;5048159;28;20274;-90
2022/04/19 00:49:49;;;;;;;8.77;6.40;;;7.20;99.90;;;;;;5080562;28;20217;-90
2022/04/19 00:52:15;;;;;;;7.13;4.77;;;7.10;99.90;;;;;;5064103;28;20263;-90
2022/04/19 00:54:44;;;;;;;6.00;4.27;;;7.10;99.90;;;;;;5065289;28;20278;-90
2022/04/19 00:57:11;;;;;;;6.77;3.93;;;7.10;99.90;;;;;;5065060;28;20204;-90
2022/04/19 00:59:37;;;;;;;5.00;4.17;;;7.10;99.90;;;;;;5047247;28;20208;-89
2022/04/19 01:02:03;;;;;;;11.83;5.67;;;7.00;99.90;;;;;;5064478;28;20217;-90
2022/04/19 01:04:30;;;;;;;5.50;5.03;;;7.00;99.90;;;;;;5064829;28;20217;-89
2022/04/19 01:06:59;;;;;;;9.13;4.53;;;6.90;99.90;;;;;;5046285;28;20732;-89
2022/04/19 01:09:25;;;;;;;3.53;3.17;;;6.90;99.90;;;;;;5038271;28;20221;-89
2022/04/19 01:14:37;;;;;;;8.47;3.90;;;7.00;99.90;;;;;;5063444;28;20216;-88
2022/04/19 01:17:04;;;;;;;4.33;3.97;;;7.00;99.90;;;;;;5078681;28;20220;-91
2022/04/19 01:19:31;;;;;;;7.07;3.87;;;7.00;99.90;;;;;;5078902;28;20233;-90
2022/04/19 01:21:57;;;;;;;9.67;5.87;;;7.00;99.90;;;;;;5062447;28;20244;-90
2022/04/19 01:24:24;;;;;;;5.80;4.93;;;7.00;99.90;;;;;;5047438;28;20205;-88
2022/04/19 01:26:54;;;;;;;5.07;4.63;;;7.10;99.90;;;;;;5081644;28;20189;-90
2022/04/19 01:29:19;;;;;;;12.93;6.70;;;7.10;99.90;;;;;;5065410;28;20261;-88
2022/04/19 01:31:46;;;;;;;7.03;4.60;;;7.00;99.90;;;;;;5064797;28;20240;-90
2022/04/19 01:34:12;;;;;;;16.97;6.97;;;7.10;99.90;;;;;;5064226;28;20225;-90
2022/04/19 01:36:38;;;;;;;9.03;5.43;;;7.00;99.90;;;;;;5061668;28;20217;-89
2022/04/19 01:39:09;;;;;;;10.27;5.93;;;7.00;99.90;;;;;;5079881;28;20221;-90
2022/04/19 01:41:36;;;;;;;8.17;6.30;;;7.00;99.90;;;;;;5047121;28;20221;-88
2022/04/19 01:44:04;;;;;;;9.10;6.83;;;7.00;99.90;;;;;;5080325;28;20216;-89
2022/04/19 01:46:31;;;;;;;13.13;6.03;;;7.00;99.90;;;;;;5057535;28;20213;-89
2022/04/19 01:48:57;;;;;;;9.23;6.20;;;6.90;99.90;;;;;;5064597;28;20265;-90
2022/04/19 01:51:24;;;;;;;7.03;5.97;;;6.90;99.90;;;;;;5063495;28;20193;-90
2022/04/19 01:53:51;;;;;;;11.67;6.83;;;6.80;99.90;;;;;;5065282;28;20195;-88
2022/04/19 01:56:17;;;;;;;8.50;6.10;;;6.70;99.90;;;;;;5080961;28;20236;-91
2022/04/19 01:58:43;;;;;;;8.20;5.17;;;6.60;99.90;;;;;;5063523;28;20241;-91
2022/04/19 02:01:09;;;;;;;17.07;6.10;;;6.50;99.90;;;;;;5046402;28;20691;-90
2022/04/19 02:03:35;;;;;;;6.07;5.03;;;6.40;99.90;;;;;;5063394;28;20697;-89
2022/04/19 02:06:05;;;;;;;9.63;5.63;;;6.40;99.90;;;;;;5064262;28;20193;-90
2022/04/19 02:08:31;;;;;;;6.17;5.60;;;6.40;99.90;;;;;;5062550;28;20353;-90
2022/04/19 02:10:59;;;;;;;7.80;4.43;;;6.30;99.90;;;;;;5063405;28;20213;-90
2022/04/19 02:13:24;;;;;;;6.57;5.03;;;6.30;99.90;;;;;;5063396;28;20228;-90
2022/04/19 02:15:51;;;;;;;6.83;5.60;;;6.30;99.90;;;;;;5046397;28;21022;-89
2022/04/19 02:18:17;;;;;;;6.43;5.83;;;6.20;99.90;;;;;;5063556;28;20308;-90
2022/04/19 02:20:45;;;;;;;4.97;4.47;;;6.30;99.90;;;;;;5046718;28;20360;-91
2022/04/19 02:23:14;;;;;;;8.77;4.67;;;6.20;99.90;;;;;;5079773;28;20227;-90
2022/04/19 02:25:40;;;;;;;6.17;4.53;;;6.20;99.90;;;;;;5046125;28;20223;-88
2022/04/19 02:28:06;;;;;;;6.73;5.97;;;6.20;99.90;;;;;;5048410;28;20661;-90
2022/04/19 02:30:32;;;;;;;9.07;4.80;;;6.20;99.90;;;;;;5084117;28;21105;-90
2022/04/19 02:32:58;;;;;;;5.77;4.93;;;6.10;99.90;;;;;;5067482;28;20200;-90
2022/04/19 02:35:27;;;;;;;6.60;5.20;;;6.20;99.90;;;;;;5068428;28;20225;-90
2022/04/19 02:37:58;;;;;;;6.50;4.67;;;6.20;99.90;;;;;;5066362;28;20233;-90
2022/04/19 02:40:26;;;;;;;9.37;4.60;;;6.20;99.90;;;;;;5082896;28;20308;-91
2022/04/19 02:42:54;;;;;;;4.47;3.90;;;6.20;99.90;;;;;;5049712;28;20228;-90
2022/04/19 02:45:21;;;;;;;9.77;4.63;;;6.20;99.90;;;;;;5083494;28;20217;-90
2022/04/19 02:48:21;;;;;;;4.90;3.77;;;6.10;99.90;;;;;;5067858;28;20205;-90
2022/04/19 02:50:48;;;;;;;5.97;5.17;;;6.10;99.90;;;;;;5022653;28;20278;-90
2022/04/19 02:53:14;;;;;;;9.57;4.90;;;6.10;99.90;;;;;;5049751;28;20258;-90
2022/04/19 02:55:40;;;;;;;4.47;4.13;;;6.20;99.90;;;;;;5050744;28;20565;-90
2022/04/19 02:58:08;;;;;;;5.87;3.20;;;6.20;99.90;;;;;;5066780;28;20232;-90
2022/04/19 03:00:34;;;;;;;6.50;3.43;;;6.20;99.90;;;;;;5050458;28;20935;-90
2022/04/19 03:03:00;;;;;;;3.17;2.87;;;6.20;99.90;;;;;;5067270;28;20200;-91
2022/04/19 03:05:26;;;;;;;4.83;4.23;;;6.30;99.90;;;;;;5067870;28;20232;-90
2022/04/19 03:07:52;;;;;;;6.67;4.37;;;6.30;99.90;;;;;;5066097;28;20233;-87
2022/04/19 03:10:17;;;;;;;14.30;5.10;;;6.30;99.90;;;;;;5066735;28;20290;-90
2022/04/19 03:12:43;;;;;;;5.67;3.83;;;6.10;99.90;;;;;;5065889;28;21005;-89
2022/04/19 03:15:11;;;;;;;5.27;4.27;;;6.00;99.90;;;;;;5065997;28;20269;-90
2022/04/19 03:17:38;;;;;;;8.07;4.63;;;5.90;99.90;;;;;;5049864;28;20228;-90
2022/04/19 03:20:08;;;;;;;4.57;3.93;;;5.80;99.90;;;;;;5048525;28;20247;-89
2022/04/19 03:28:04;;;;;;;5.03;3.93;;;5.50;99.90;;;;;;5080705;28;20216;-90
2022/04/19 03:30:30;;;;;;;5.43;4.47;;;5.40;99.90;;;;;;5041752;28;20224;-90
2022/04/19 03:32:56;;;;;;;5.83;3.27;;;5.40;99.90;;;;;;5067290;28;20193;-90
2022/04/19 03:35:22;;;;;;;6.07;4.40;;;5.40;99.90;;;;;;5082723;28;20679;-90
2022/04/19 03:37:47;;;;;;;5.23;4.73;;;5.50;99.90;;;;;;5065875;28;20293;-90
2022/04/19 03:40:14;;;;;;;8.67;4.70;;;5.50;99.90;;;;;;5066031;28;20347;-90
2022/04/19 03:42:43;;;;;;;5.60;4.10;;;5.50;99.90;;;;;;5065987;28;20577;-89
2022/04/19 03:45:10;;;;;;;7.17;4.33;;;5.50;99.90;;;;;;5049455;28;20564;-89
2022/04/19 03:47:36;;;;;;;4.97;3.57;;;5.50;99.90;;;;;;5083059;28;20201;-90
2022/04/19 03:50:03;;;;;;;4.13;3.73;;;5.50;99.90;;;;;;5065458;28;20553;-90
2022/04/19 03:52:29;;;;;;;4.37;3.83;;;5.50;99.90;;;;;;5082674;28;20217;-89
2022/04/19 03:54:55;;;;;;;7.00;4.93;;;5.50;99.90;;;;;;5065499;28;20224;-90
2022/04/19 03:57:20;;;;;;;3.30;3.03;;;5.50;99.90;;;;;;5065293;28;20276;-89
2022/04/19 03:59:46;;;;;;;3.47;2.80;;;5.40;99.90;;;;;;5065896;28;20242;-89
2022/04/19 04:02:12;;;;;;;4.63;4.13;;;5.40;99.90;;;;;;5049124;28;20693;-90
2022/04/19 04:04:37;;;;;;;4.23;3.93;;;5.40;99.90;;;;;;5048858;28;20280;-89
2022/04/19 04:07:04;;;;;;;3.37;3.07;;;5.30;99.90;;;;;;5040694;28;20543;-89
2022/04/19 04:09:32;;;;;;;4.50;3.20;;;5.30;99.90;;;;;;5047524;28;20217;-89
2022/04/19 04:12:11;;;;;;;5.97;3.67;;;5.30;99.90;;;;;;5082379;28;20189;-89
2022/04/19 04:14:38;;;;;;;5.07;3.80;;;5.30;99.90;;;;;;5066603;28;20274;-90
2022/04/19 04:17:04;;;;;;;3.67;3.13;;;5.20;99.90;;;;;;5048732;28;20597;-89
2022/04/19 04:19:29;;;;;;;3.07;2.47;;;5.10;99.90;;;;;;5064725;28;20716;-90
2022/04/19 04:21:55;;;;;;;3.87;3.30;;;5.00;99.90;;;;;;5064202;28;20260;-89
2022/04/19 04:24:21;;;;;;;3.50;3.10;;;4.90;99.90;;;;;;5062485;28;20197;-89
2022/04/19 04:26:47;;;;;;;3.03;2.83;;;5.00;99.90;;;;;;5048198;28;20193;-90
2022/04/19 04:29:13;;;;;;;2.60;2.40;;;5.00;99.90;;;;;;5064517;28;20236;-89
2022/04/19 04:31:39;;;;;;;5.43;2.77;;;5.00;99.90;;;;;;5048261;28;20217;-89
2022/04/19 04:34:06;;;;;;;4.63;2.40;;;5.10;99.90;;;;;;5063306;28;20332;-90
2022/04/19 04:36:32;;;;;;;3.07;2.23;;;5.10;99.90;;;;;;5063322;28;20216;-90
2022/04/19 04:38:58;;;;;;;4.67;2.23;;;5.20;99.90;;;;;;5045908;28;20209;-91
2022/04/19 04:41:23;;;;;;;3.60;2.73;;;5.20;99.90;;;;;;5064958;28;20221;-89
2022/04/19 04:43:49;;;;;;;5.10;4.27;;;5.20;99.90;;;;;;5064725;28;20661;-90
2022/04/19 04:51:43;;;;;;;3.73;2.67;;;5.20;99.90;;;;;;5078177;28;20271;-89
2022/04/19 04:54:09;;;;;;;2.83;2.63;;;5.30;99.90;;;;;;5064461;28;20192;-90
2022/04/19 04:56:35;;;;;;;3.43;2.93;;;5.40;99.90;;;;;;5046559;28;20197;-89
2022/04/19 04:59:00;;;;;;;4.80;2.87;;;5.50;99.90;;;;;;5044026;28;20244;-89
2022/04/19 05:01:26;;;;;;;4.60;3.37;;;5.60;99.90;;;;;;5064259;28;20220;-90
2022/04/19 05:03:52;;;;;;;2.10;1.97;;;5.60;99.90;;;;;;5047470;28;20610;-88
2022/04/19 05:06:17;;;;;;;4.30;2.77;;;5.80;99.90;;;;;;5047548;28;20189;-88
2022/04/19 05:08:43;;;;;;;4.27;3.03;;;5.90;99.90;;;;;;5065112;28;20185;-87
2022/04/19 05:11:09;;;;;;;2.43;2.20;;;6.00;99.90;;;;;;5063947;28;20454;-86
2022/04/19 05:13:35;;;;;;;4.77;4.07;;;6.20;99.90;;;;;;5047255;28;20213;-84
2022/04/19 05:16:01;;;;;;;3.33;2.57;;;6.30;99.90;;;;;;5045726;28;20278;-86
2022/04/19 05:18:27;;;;;;;5.93;4.63;;;6.60;99.90;;;;;;5046015;28;20229;-85
2022/04/19 05:20:54;;;;;;;3.77;3.47;;;7.30;99.90;;;;;;5054345;28;20298;-85
2022/04/19 05:23:20;;;;;;;4.87;3.97;;;8.50;99.90;;;;;;5065263;28;20595;-85
2022/04/19 05:25:46;;;;;;;3.87;3.47;;;10.00;99.90;;;;;;5065146;28;20209;-86
2022/04/19 05:28:12;;;;;;;5.63;3.43;;;11.00;99.90;;;;;;5047226;28;20213;-85
2022/04/19 05:30:38;;;;;;;5.13;3.60;;;11.20;99.90;;;;;;5047248;28;20219;-87
2022/04/19 05:33:05;;;;;;;4.27;3.00;;;11.80;99.90;;;;;;5063700;28;20280;-85
2022/04/19 05:35:31;;;;;;;4.20;3.00;;;12.20;99.90;;;;;;5077826;28;21296;-85
2022/04/19 05:37:58;;;;;;;5.50;3.97;;;12.60;99.90;;;;;;5079910;28;20317;-85
2022/04/19 05:40:24;;;;;;;3.60;2.77;;;13.00;99.90;;;;;;5062715;28;20783;-89
2022/04/19 05:42:50;;;;;;;5.00;3.93;;;13.80;99.90;;;;;;5063261;28;20247;-86
2022/04/19 05:45:16;;;;;;;6.97;3.87;;;14.70;99.90;;;;;;5063072;28;20240;-89
2022/04/19 05:47:42;;;;;;;5.37;3.90;;;14.40;99.90;;;;;;5080066;28;20292;-89
2022/04/19 05:50:09;;;;;;;6.53;4.17;;;14.50;99.90;;;;;;5046230;28;20220;-87
2022/04/19 05:52:35;;;;;;;5.77;4.27;;;14.20;99.90;;;;;;5063300;28;20681;-89
2022/04/19 05:55:01;;;;;;;4.57;3.60;;;14.10;99.90;;;;;;5045739;28;20233;-87
2022/04/19 05:57:27;;;;;;;5.17;3.50;;;14.20;99.90;;;;;;5046224;28;20610;-88
2022/04/19 05:59:52;;;;;;;6.13;3.70;;;15.00;99.90;;;;;;5063442;28;20197;-87
2022/04/19 06:05:04;;;;;;;7.20;2.80;;;15.50;99.90;;;;;;5067702;28;20224;-87
2022/04/19 06:07:30;;;;;;;6.20;3.47;;;15.50;99.90;;;;;;5066682;28;20240;-86
2022/04/19 06:09:57;;;;;;;5.47;3.33;;;15.40;99.90;;;;;;5067245;28;20266;-86
2022/04/19 06:12:23;;;;;;;4.97;3.87;;;15.20;99.90;;;;;;5068054;28;20661;-86
2022/04/19 06:14:49;;;;;;;6.53;4.33;;;15.50;99.90;;;;;;5050610;28;20228;-85
2022/04/19 06:17:21;;;;;;;7.23;3.97;;;15.20;99.90;;;;;;5049598;28;20224;-86
2022/04/19 06:19:47;;;;;;;5.03;3.40;;;15.70;99.90;;;;;;5068433;28;20240;-88
2022/04/19 06:22:13;;;;;;;6.47;4.20;;;15.60;99.90;;;;;;5066897;28;20237;-86
2022/04/19 06:24:39;;;;;;;5.40;3.60;;;15.00;99.90;;;;;;5084187;28;20245;-86
2022/04/19 06:27:04;;;;;;;6.03;3.77;;;14.60;99.90;;;;;;5067704;28;20270;-82
2022/04/19 06:29:30;;;;;;;11.33;4.17;;;15.00;99.90;;;;;;5067554;28;20185;-87
2022/04/19 06:31:56;;;;;;;6.93;4.50;;;15.60;99.90;;;;;;5068179;28;20678;-87
2022/04/19 06:34:22;;;;;;;6.37;3.90;;;15.60;99.90;;;;;;5066826;28;20815;-88
2022/04/19 06:36:47;;;;;;;4.23;3.37;;;15.20;99.90;;;;;;5067315;28;20363;-87
2022/04/19 06:39:13;;;;;;;6.50;3.63;;;15.20;99.90;;;;;;5064534;28;20209;-86
2022/04/19 06:41:41;;;;;;;7.60;3.90;;;15.20;99.90;;;;;;5047067;28;20561;-86
2022/04/19 06:44:08;;;;;;;6.53;4.07;;;14.60;99.90;;;;;;5047557;28;20217;-85
2022/04/19 06:46:36;;;;;;;5.83;4.30;;;14.80;99.90;;;;;;5049326;28;20221;-86
2022/04/19 06:49:03;;;;;;;6.53;4.27;;;14.30;99.90;;;;;;5081939;28;21064;-86
2022/04/19 06:51:30;;;;;;;4.17;3.73;;;14.80;99.90;;;;;;5049152;28;20221;-86
2022/04/19 06:53:56;;;;;;;4.43;3.57;;;16.10;99.90;;;;;;5065463;28;20255;-86
2022/04/19 06:56:22;;;;;;;6.07;4.03;;;17.00;99.90;;;;;;5061642;28;20217;-86
2022/04/19 06:58:49;;;;;;;7.77;4.20;;;16.80;99.90;;;;;;5064545;28;20964;-86
2022/04/19 07:01:15;;;;;;;5.87;3.83;;;16.90;99.90;;;;;;5064806;28;20228;-86
2022/04/19 07:03:41;;;;;;;6.87;4.03;;;17.40;99.90;;;;;;5081683;28;20213;-86
2022/04/19 07:06:06;;;;;;;8.97;3.87;;;16.50;99.90;;;;;;5048280;28;20200;-85
2022/04/19 07:08:33;;;;;;;4.93;3.50;;;16.90;99.90;;;;;;5082669;28;20641;-87
2022/04/19 07:11:00;;;;;;;7.20;4.00;;;16.50;99.90;;;;;;5046622;28;20803;-86
2022/04/19 07:13:26;;;;;;;5.77;3.30;;;16.60;99.90;;;;;;5065577;28;20228;-86
2022/04/19 07:15:53;;;;;;;5.87;3.73;;;16.30;99.90;;;;;;5066416;28;20856;-85
2022/04/19 07:18:23;;;;;;;6.03;3.30;;;15.40;99.90;;;;;;5056982;28;20221;-86
2022/04/19 07:29:15;;;;;;;8.43;4.03;;;14.00;99.90;;;;;;5066186;28;20232;-86
2022/04/19 07:31:43;;;;;;;6.03;4.03;;;14.20;99.90;;;;;;5066464;28;20216;-87
2022/04/19 07:34:09;;;;;;;6.43;4.13;;;14.50;99.90;;;;;;5048038;28;20296;-87
2022/04/19 07:36:37;;;;;;;6.83;4.53;;;15.30;99.90;;;;;;5065053;28;20747;-86
2022/04/19 07:39:06;;;;;;;6.57;4.20;;;16.80;99.90;;;;;;5081850;28;20205;-87
2022/04/19 07:41:34;;;;;;;6.97;4.07;;;16.90;99.90;;;;;;5055224;28;20260;-86
2022/04/19 07:44:01;;;;;;;8.00;4.33;;;16.40;99.90;;;;;;5056401;28;20240;-86
2022/04/19 07:46:28;;;;;;;7.10;3.97;;;16.90;99.90;;;;;;5064459;28;20256;-87
2022/04/19 07:48:54;;;;;;;5.40;4.03;;;16.70;99.90;;;;;;5040000;28;20236;-87
2022/04/19 07:51:21;;;;;;;8.73;4.60;;;16.40;99.90;;;;;;5065710;28;20242;-87
2022/04/19 07:53:46;;;;;;;6.47;4.33;;;16.20;99.90;;;;;;5048698;28;20193;-86
2022/04/19 07:56:12;;;;;;;5.73;4.00;;;16.30;99.90;;;;;;5080652;28;20264;-85
2022/04/19 07:58:38;;;;;;;7.93;4.33;;;16.50;99.90;;;;;;5065402;28;20248;-86
2022/04/19 08:01:04;;;;;;;5.30;3.30;;;16.50;99.90;;;;;;5062188;28;20227;-87
2022/04/19 08:03:30;;;;;;;7.57;4.23;;;17.10;99.90;;;;;;5047200;28;20216;-87
2022/04/19 08:05:56;;;;;;;5.70;3.80;;;16.40;99.90;;;;;;5048069;28;20189;-86
2022/04/19 08:08:22;;;;;;;5.03;2.70;;;17.10;99.90;;;;;;5047047;28;20251;-86
2022/04/19 08:10:49;;;;;;;4.67;3.17;;;16.30;99.90;;;;;;5047395;28;20209;-86
2022/04/19 08:13:15;;;;;;;6.40;3.70;;;16.20;99.90;;;;;;5056303;28;20232;-87
2022/04/19 08:15:41;;;;;;;6.90;3.70;;;16.40;99.90;;;;;;5046664;28;20224;-87
2022/04/19 08:18:11;;;;;;;5.97;3.70;;;16.10;99.90;;;;;;5046824;28;20266;-85
2022/04/19 08:20:37;;;;;;;4.53;3.57;;;16.10;99.90;;;;;;5047799;28;20259;-86
2022/04/19 08:23:03;;;;;;;3.23;2.00;;;15.50;99.90;;;;;;5063048;28;20715;-86
2022/04/19 08:25:29;;;;;;;4.03;2.90;;;15.10;99.90;;;;;;5062913;28;20709;-86
2022/04/19 08:27:55;;;;;;;5.23;3.43;;;15.20;99.90;;;;;;5064008;28;20217;-84
2022/04/19 08:30:21;;;;;;;4.23;3.10;;;15.30;99.90;;;;;;5046868;28;20416;-86
2022/04/19 08:32:47;;;;;;;5.63;2.43;;;15.50;99.90;;;;;;5065731;28;20192;-86
2022/04/19 08:35:13;;;;;;;4.87;2.83;;;15.80;99.90;;;;;;5063236;28;20703;-87
2022/04/19 08:37:39;;;;;;;4.87;3.37;;;15.90;99.90;;;;;;5037142;28;20795;-87
2022/04/19 08:40:07;;;;;;;4.03;2.20;;;15.80;99.90;;;;;;5062485;28;20304;-87
2022/04/19 08:42:34;;;;;;;3.17;2.70;;;15.80;99.90;;;;;;5071060;28;20221;-87
2022/04/19 08:45:02;;;;;;;4.47;2.70;;;15.90;99.90;;;;;;5071941;28;20189;-86
2022/04/19 08:47:31;;;;;;;3.37;2.03;;;16.00;99.90;;;;;;5064813;28;20213;-87
2022/04/19 08:50:01;;;;;;;5.50;2.97;;;16.00;99.90;;;;;;5062862;28;20257;-86
2022/04/19 08:52:27;;;;;;;3.47;2.27;;;16.10;99.90;;;;;;5046422;28;20300;-87
2022/04/19 08:57:40;;;;;;;4.10;2.60;;;16.20;99.90;;;;;;5076734;28;20220;-87
2022/04/19 09:00:07;;;;;;;3.37;2.23;;;16.50;99.90;;;;;;5046510;28;20750;-87
2022/04/19 09:02:37;;;;;;;3.83;2.37;;;16.60;99.90;;;;;;5063057;28;20326;-87
2022/04/19 09:05:11;;;;;;;3.07;1.90;;;16.70;99.90;;;;;;5078610;28;20214;-87
2022/04/19 09:07:37;;;;;;;2.63;1.43;;;16.60;99.90;;;;;;5063871;28;20224;-85
2022/04/19 09:10:06;;;;;;;4.40;1.83;;;16.50;99.90;;;;;;5079589;28;20928;-87
2022/04/19 09:12:32;;;;;;;3.70;1.67;;;16.40;99.90;;;;;;5046257;28;20267;-88
2022/04/19 09:15:06;;;;;;;3.43;2.47;;;16.30;99.90;;;;;;5045959;28;20185;-86
2022/04/19 09:17:36;;;;;;;3.63;2.53;;;16.10;99.90;;;;;;5062534;28;20308;-87
2022/04/19 09:20:15;;;;;;;4.60;2.80;;;16.30;99.90;;;;;;5063383;28;20275;-86
2022/04/19 09:22:42;;;;;;;2.77;1.67;;;16.80;99.90;;;;;;5055814;28;20236;-87
2022/04/19 09:25:15;;;;;;;3.17;2.23;;;17.00;99.90;;;;;;5061019;28;20228;-87
2022/04/19 09:27:42;;;;;;;1.77;1.40;;;17.30;99.90;;;;;;5045039;28;20224;-86
2022/04/19 09:30:22;;;;;;;2.27;2.07;;;17.10;99.90;;;;;;5061544;28;20189;-87
2022/04/19 09:33:09;;;;;;;2.73;2.00;;;16.90;99.90;;;;;;5056156;28;20189;-86
2022/04/19 09:36:02;;;;;;;3.30;2.00;;;17.50;99.90;;;;;;5077965;28;20232;-86
2022/04/19 09:38:43;;;;;;;3.57;1.70;;;17.90;99.90;;;;;;5044656;28;20224;-87
2022/04/19 09:41:29;;;;;;;2.43;1.87;;;17.10;99.90;;;;;;5045385;28;20216;-86
2022/04/19 09:44:04;;;;;;;2.90;1.90;;;17.10;99.90;;;;;;5064727;28;20661;-86
2022/04/19 09:46:30;;;;;;;2.27;2.07;;;17.20;99.90;;;;;;5080002;28;20228;-88
2022/04/19 09:48:56;;;;;;;2.07;1.63;;;17.70;99.90;;;;;;5064327;28;20221;-87
2022/04/19 09:51:31;;;;;;;2.53;1.80;;;17.70;99.90;;;;;;5078736;28;20201;-88
2022/04/19 09:53:56;;;;;;;1.40;1.30;;;17.80;99.90;;;;;;5045207;28;20283;-88
2022/04/19 09:56:22;;;;;;;1.70;0.70;;;17.70;99.90;;;;;;5045261;28;20224;-87
2022/04/19 09:58:50;;;;;;;1.30;0.70;;;17.50;99.90;;;;;;5062897;28;20232;-88
2022/04/19 10:09:34;;;;;;;0.80;0.67;;;17.10;99.90;;;;;;5076990;28;20233;-87
2022/04/19 10:12:02;;;;;;;0.80;0.80;;;17.20;99.90;;;;;;5063062;28;20212;-87
2022/04/19 10:14:30;;;;;;;1.23;1.03;;;17.20;99.90;;;;;;5049637;28;20228;-87
2022/04/19 10:17:00;;;;;;;0.40;0.40;;;17.60;99.90;;;;;;5078318;28;20248;-88
2022/04/19 10:19:27;;;;;;;1.00;0.73;;;17.60;99.90;;;;;;5063131;28;20310;-87
2022/04/19 10:21:54;;;;;;;0.47;0.47;;;17.40;99.90;;;;;;5044199;28;20233;-86
2022/04/19 10:24:20;;;;;;;1.90;0.63;;;17.80;99.90;;;;;;5044415;28;20270;-87
2022/04/19 10:26:51;;;;;;;0.83;0.83;;;17.70;99.90;;;;;;5045014;28;20560;-88
2022/04/19 10:29:18;;;;;;;2.23;0.90;;;17.80;99.90;;;;;;5061104;28;20221;-87
2022/04/19 10:31:58;;;;;;;0.90;0.80;;;17.60;99.90;;;;;;5063195;28;20221;-87
2022/04/19 10:34:26;;;;;;;1.33;0.87;;;17.60;99.90;;;;;;5063122;28;20237;-86
2022/04/19 10:36:54;;;;;;;3.90;1.10;;;17.50;99.90;;;;;;5061311;28;20209;-87
2022/04/19 10:39:25;;;;;;;1.47;0.90;;;17.50;99.90;;;;;;5061226;28;20214;-86
2022/04/19 10:42:01;;;;;;;1.20;0.93;;;17.70;99.90;;;;;;5044758;28;20308;-86
2022/04/19 10:44:35;;;;;;;0.60;0.53;;;17.80;99.90;;;;;;5062111;28;20308;-87
2022/04/19 10:47:17;;;;;;;1.67;0.80;;;18.10;99.90;;;;;;5044131;28;20231;-86
2022/04/19 10:50:06;;;;;;;1.60;0.90;;;18.10;99.90;;;;;;5046694;28;20328;-87
2022/04/19 10:52:38;;;;;;;1.40;0.80;;;17.80;99.90;;;;;;5045458;28;20287;-87
2022/04/19 10:55:24;;;;;;;1.03;0.93;;;17.80;99.90;;;;;;5047015;28;20256;-87
2022/04/19 10:58:16;;;;;;;0.97;0.80;;;17.40;99.90;;;;;;5064790;28;20237;-88
2022/04/19 11:00:46;;;;;;;1.90;1.00;;;17.10;99.90;;;;;;5047552;28;20231;-88
2022/04/19 11:03:20;;;;;;;1.90;1.27;;;17.50;99.90;;;;;;5047581;28;20258;-88
2022/04/19 11:05:46;;;;;;;1.30;1.20;;;17.30;99.90;;;;;;5039869;28;20188;-86
2022/04/19 11:08:24;;;;;;;2.63;1.40;;;17.10;99.90;;;;;;5065012;28;20239;-88
2022/04/19 11:11:20;;;;;;;0.70;0.70;;;17.30;99.90;;;;;;5064164;28;20653;-89
2022/04/19 11:14:40;;;;;;;1.13;1.00;;;17.00;99.90;;;;;;5060651;28;20220;-87
2022/04/19 11:17:27;;;;;;;0.80;0.73;;;17.10;99.90;;;;;;5003297;28;20232;-87
2022/04/19 11:20:05;;;;;;;1.13;1.03;;;17.10;99.90;;;;;;5064293;28;20225;-88
2022/04/19 11:23:16;;;;;;;1.50;1.23;;;17.10;99.90;;;;;;5045883;28;20291;-87
2022/04/19 11:25:43;;;;;;;1.77;1.67;;;17.30;99.90;;;;;;5043491;28;20216;-87
2022/04/19 11:28:12;;;;;;;3.17;1.20;;;17.20;99.90;;;;;;5043184;28;21088;-87
2022/04/19 11:31:05;;;;;;;1.40;1.30;;;17.00;99.90;;;;;;5063717;28;20217;-87
2022/04/19 11:33:33;;;;;;;2.50;1.30;;;16.80;99.90;;;;;;5063775;28;20234;-88
2022/04/19 11:36:07;;;;;;;2.67;1.93;;;17.10;99.90;;;;;;5079940;28;20189;-87
2022/04/19 11:38:47;;;;;;;2.43;1.50;;;17.10;99.90;;;;;;5063929;28;20281;-87
2022/04/19 11:46:57;;;;;;;2.87;1.67;;;16.80;99.90;;;;;;5065172;28;20213;-88
2022/04/19 11:49:26;;;;;;;2.00;1.43;;;17.10;99.90;;;;;;5070290;28;20221;-87
2022/04/19 11:51:58;;;;;;;1.97;1.60;;;17.20;99.90;;;;;;5046753;28;20651;-88
2022/04/19 11:54:31;;;;;;;1.57;1.00;;;17.20;99.90;;;;;;5064832;28;20177;-88
2022/04/19 11:57:05;;;;;;;1.40;1.10;;;16.90;99.90;;;;;;5060344;28;20829;-88
2022/04/19 11:59:35;;;;;;;1.73;1.37;;;16.70;99.90;;;;;;5045180;28;20221;-88
2022/04/19 12:02:03;;;;;;;2.07;1.40;;;16.60;99.90;;;;;;5062956;28;20225;-88
2022/04/19 12:04:28;;;;;;;1.77;1.67;;;16.90;99.90;;;;;;5062842;28;20239;-87
2022/04/19 12:06:58;;;;;;;2.60;1.30;;;17.00;99.90;;;;;;5078527;28;20213;-88
2022/04/19 12:09:24;;;;;;;1.30;1.10;;;16.80;99.90;;;;;;5044283;28;20398;-87
2022/04/19 12:11:50;;;;;;;3.57;1.67;;;16.80;99.90;;;;;;5062120;28;20242;-88
2022/04/19 12:14:32;;;;;;;2.10;1.20;;;16.70;99.90;;;;;;5079098;28;20233;-87
2022/04/19 12:17:01;;;;;;;1.97;1.10;;;16.70;99.90;;;;;;5063689;28;20217;-87
2022/04/19 12:19:35;;;;;;;1.60;1.50;;;16.50;99.90;;;;;;5045855;28;20225;-87
2022/04/19 12:22:13;;;;;;;1.70;1.43;;;16.60;99.90;;;;;;5056480;28;20499;-88
2022/04/19 12:24:55;;;;;;;1.87;1.13;;;16.70;99.90;;;;;;5061008;28;20231;-87
2022/04/19 12:27:33;;;;;;;2.23;1.23;;;16.70;99.90;;;;;;5079026;28;20173;-89
2022/04/19 12:30:12;;;;;;;1.63;1.47;;;16.80;99.90;;;;;;5064241;28;20330;-88
2022/04/19 12:32:55;;;;;;;1.10;0.90;;;17.00;99.90;;;;;;5044449;28;20296;-87
2022/04/19 12:35:24;;;;;;;1.47;1.27;;;16.80;99.90;;;;;;5061781;28;20225;-88
2022/04/19 12:38:21;;;;;;;1.80;1.53;;;16.80;99.90;;;;;;5062274;28;20225;-88
2022/04/19 12:40:46;;;;;;;0.87;0.87;;;16.80;99.90;;;;;;5044098;28;20262;-88
2022/04/19 12:43:18;;;;;;;2.47;1.63;;;16.80;99.90;;;;;;5061752;28;20600;-87
2022/04/19 12:45:46;;;;;;;3.03;1.47;;;16.80;99.90;;;;;;5062918;28;20308;-88
2022/04/19 12:48:19;;;;;;;3.10;1.83;;;16.80;99.90;;;;;;5045162;28;21106;-88
2022/04/19 12:50:45;;;;;;;3.73;1.63;;;17.00;99.90;;;;;;5062291;28;20587;-88
2022/04/19 12:53:30;;;;;;;2.93;1.63;;;16.80;99.90;;;;;;5061603;28;20229;-87
2022/04/19 12:55:56;;;;;;;2.53;2.00;;;17.00;99.90;;;;;;5045468;28;20251;-88
2022/04/19 12:58:21;;;;;;;1.20;1.00;;;16.90;99.90;;;;;;5061868;28;20332;-88
2022/04/19 13:00:47;;;;;;;3.80;2.10;;;16.90;99.90;;;;;;5045409;28;21119;-88
2022/04/19 13:03:14;;;;;;;2.50;1.47;;;16.80;99.90;;;;;;5078866;28;20223;-88
2022/04/19 13:13:57;;;;;;;4.07;1.73;;;17.00;99.90;;;;;;5062682;28;20759;-87
2022/04/19 13:16:23;;;;;;;3.10;2.47;;;16.90;99.90;;;;;;5061203;28;20798;-87
2022/04/19 13:18:49;;;;;;;2.23;1.60;;;17.00;99.90;;;;;;5078313;28;20233;-87
2022/04/19 13:21:16;;;;;;;4.13;2.73;;;16.70;99.90;;;;;;5060653;28;20243;-88
2022/04/19 13:23:41;;;;;;;2.77;1.80;;;16.80;99.90;;;;;;5064967;28;20201;-86
2022/04/19 13:26:07;;;;;;;2.90;1.77;;;17.00;99.90;;;;;;5046689;28;20343;-89
2022/04/19 13:28:33;;;;;;;2.77;2.20;;;16.90;99.90;;;;;;5061504;28;20229;-89
2022/04/19 13:30:59;;;;;;;2.57;1.90;;;16.90;99.90;;;;;;5079967;28;20221;-89
2022/04/19 13:33:25;;;;;;;1.80;1.70;;;16.80;99.90;;;;;;5079871;28;20227;-88
2022/04/19 13:35:51;;;;;;;4.27;2.07;;;16.70;99.90;;;;;;5064183;28;20551;-88
2022/04/19 13:38:25;;;;;;;3.87;2.03;;;16.60;99.90;;;;;;5046253;28;20290;-89
2022/04/19 13:40:52;;;;;;;2.17;1.97;;;16.70;99.90;;;;;;5079246;28;20225;-88
2022/04/19 13:43:17;;;;;;;2.13;1.90;;;16.70;99.90;;;;;;5046146;28;20284;-88
2022/04/19 13:45:43;;;;;;;1.30;1.20;;;16.40;99.90;;;;;;5063644;28;20789;-90
2022/04/19 13:48:09;;;;;;;2.53;1.73;;;16.10;99.90;;;;;;5062319;28;20193;-88